sensor_id;sensor_type;location;lat;lon;timestamp;P1;durP1;ratioP1;P2;durP2;ratioP2
73132;SDS011;61320;52.008;4.530;2023-02-26T00:00:09;4.34;;;4.12;;
73132;SDS011;61320;52.008;4.530;2023-02-26T00:02:39;3.89;;;3.67;;
73132;SDS011;61320;52.008;4.530;2023-02-26T00:05:10;4.49;;;4.28;;
73132;SDS011;61320;52.008;4.530;2023-02-26T00:07:37;4.27;;;4.04;;
73132;SDS011;61320;52.008;4.530;2023-02-26T00:10:06;4.24;;;4.05;;
73132;SDS011;61320;52.008;4.530;2023-02-26T00:12:34;4.12;;;3.93;;
73132;SDS011;61320;52.008;4.530;2023-02-26T00:15:01;3.68;;;3.49;;
73132;SDS011;61320;52.008;4.530;2023-02-26T00:20:11;4.04;;;3.84;;
73132;SDS011;61320;52.008;4.530;2023-02-26T00:22:38;3.72;;;3.60;;
73132;SDS011;61320;52.008;4.530;2023-02-26T00:25:04;3.68;;;3.58;;
73132;SDS011;61320;52.008;4.530;2023-02-26T00:27:30;3.60;;;3.48;;
73132;SDS011;61320;52.008;4.530;2023-02-26T00:29:55;3.62;;;3.48;;
73132;SDS011;61320;52.008;4.530;2023-02-26T00:32:21;3.44;;;3.31;;
73132;SDS011;61320;52.008;4.530;2023-02-26T00:34:47;3.61;;;3.44;;
73132;SDS011;61320;52.008;4.530;2023-02-26T00:42:53;3.49;;;3.29;;
73132;SDS011;61320;52.008;4.530;2023-02-26T00:45:19;3.50;;;3.27;;
73132;SDS011;61320;52.008;4.530;2023-02-26T00:47:59;3.47;;;3.20;;
73132;SDS011;61320;52.008;4.530;2023-02-26T00:51:06;3.27;;;3.08;;
73132;SDS011;61320;52.008;4.530;2023-02-26T00:56:21;2.61;;;2.45;;
73132;SDS011;61320;52.008;4.530;2023-02-26T00:58:46;2.61;;;2.44;;
73132;SDS011;61320;52.008;4.530;2023-02-26T01:01:11;2.59;;;2.39;;
73132;SDS011;61320;52.008;4.530;2023-02-26T01:03:37;2.83;;;2.58;;
73132;SDS011;61320;52.008;4.530;2023-02-26T01:06:03;2.87;;;2.63;;
73132;SDS011;61320;52.008;4.530;2023-02-26T01:08:37;2.94;;;2.72;;
73132;SDS011;61320;52.008;4.530;2023-02-26T01:11:12;3.08;;;2.80;;
73132;SDS011;61320;52.008;4.530;2023-02-26T01:13:38;3.41;;;3.02;;
73132;SDS011;61320;52.008;4.530;2023-02-26T01:16:08;3.32;;;2.91;;
73132;SDS011;61320;52.008;4.530;2023-02-26T01:18:43;3.21;;;2.91;;
73132;SDS011;61320;52.008;4.530;2023-02-26T01:21:16;3.11;;;2.85;;
73132;SDS011;61320;52.008;4.530;2023-02-26T01:23:51;3.08;;;2.83;;
73132;SDS011;61320;52.008;4.530;2023-02-26T01:28:51;3.13;;;2.86;;
73132;SDS011;61320;52.008;4.530;2023-02-26T01:34:21;2.95;;;2.75;;
73132;SDS011;61320;52.008;4.530;2023-02-26T01:36:55;2.89;;;2.64;;
73132;SDS011;61320;52.008;4.530;2023-02-26T01:39:38;3.01;;;2.78;;
73132;SDS011;61320;52.008;4.530;2023-02-26T01:42:18;2.85;;;2.62;;
73132;SDS011;61320;52.008;4.530;2023-02-26T01:47:30;2.91;;;2.67;;
73132;SDS011;61320;52.008;4.530;2023-02-26T01:50:12;2.90;;;2.64;;
73132;SDS011;61320;52.008;4.530;2023-02-26T01:55:44;3.03;;;2.78;;
73132;SDS011;61320;52.008;4.530;2023-02-26T01:58:15;2.83;;;2.59;;
73132;SDS011;61320;52.008;4.530;2023-02-26T02:00:44;2.95;;;2.68;;
73132;SDS011;61320;52.008;4.530;2023-02-26T02:03:09;2.88;;;2.59;;
73132;SDS011;61320;52.008;4.530;2023-02-26T02:05:40;2.74;;;2.40;;
73132;SDS011;61320;52.008;4.530;2023-02-26T02:08:11;3.19;;;2.72;;
73132;SDS011;61320;52.008;4.530;2023-02-26T02:10:39;3.25;;;2.79;;
73132;SDS011;61320;52.008;4.530;2023-02-26T02:16:02;3.46;;;2.88;;
73132;SDS011;61320;52.008;4.530;2023-02-26T02:18:59;3.06;;;2.57;;
73132;SDS011;61320;52.008;4.530;2023-02-26T02:21:27;2.94;;;2.46;;
73132;SDS011;61320;52.008;4.530;2023-02-26T02:24:13;3.24;;;2.70;;
73132;SDS011;61320;52.008;4.530;2023-02-26T02:35:06;3.29;;;2.54;;
73132;SDS011;61320;52.008;4.530;2023-02-26T02:37:42;3.13;;;2.40;;
73132;SDS011;61320;52.008;4.530;2023-02-26T02:40:17;2.98;;;2.22;;
73132;SDS011;61320;52.008;4.530;2023-02-26T02:42:52;3.59;;;2.64;;
73132;SDS011;61320;52.008;4.530;2023-02-26T02:45:49;3.29;;;2.47;;
73132;SDS011;61320;52.008;4.530;2023-02-26T02:48:23;3.52;;;2.62;;
73132;SDS011;61320;52.008;4.530;2023-02-26T02:50:58;3.47;;;2.60;;
73132;SDS011;61320;52.008;4.530;2023-02-26T02:53:46;3.46;;;2.62;;
73132;SDS011;61320;52.008;4.530;2023-02-26T02:56:20;3.00;;;2.28;;
73132;SDS011;61320;52.008;4.530;2023-02-26T02:58:55;3.13;;;2.38;;
73132;SDS011;61320;52.008;4.530;2023-02-26T03:01:29;3.35;;;2.52;;
73132;SDS011;61320;52.008;4.530;2023-02-26T03:04:07;3.69;;;2.69;;
73132;SDS011;61320;52.008;4.530;2023-02-26T03:06:36;4.02;;;2.88;;
73132;SDS011;61320;52.008;4.530;2023-02-26T03:09:03;3.82;;;2.75;;
73132;SDS011;61320;52.008;4.530;2023-02-26T03:11:31;3.81;;;2.75;;
73132;SDS011;61320;52.008;4.530;2023-02-26T03:13:58;3.23;;;2.38;;
73132;SDS011;61320;52.008;4.530;2023-02-26T03:19:20;3.20;;;2.42;;
73132;SDS011;61320;52.008;4.530;2023-02-26T03:24:45;3.10;;;2.34;;
73132;SDS011;61320;52.008;4.530;2023-02-26T03:35:26;3.73;;;2.65;;
73132;SDS011;61320;52.008;4.530;2023-02-26T03:38:00;3.66;;;2.60;;
73132;SDS011;61320;52.008;4.530;2023-02-26T03:40:36;4.21;;;3.00;;
73132;SDS011;61320;52.008;4.530;2023-02-26T03:43:11;3.94;;;2.90;;
73132;SDS011;61320;52.008;4.530;2023-02-26T03:46:06;3.81;;;2.90;;
73132;SDS011;61320;52.008;4.530;2023-02-26T03:48:37;3.49;;;2.69;;
73132;SDS011;61320;52.008;4.530;2023-02-26T03:51:05;3.30;;;2.55;;
73132;SDS011;61320;52.008;4.530;2023-02-26T03:53:39;3.12;;;2.37;;
73132;SDS011;61320;52.008;4.530;2023-02-26T03:56:28;3.08;;;2.30;;
73132;SDS011;61320;52.008;4.530;2023-02-26T03:59:00;3.18;;;2.37;;
73132;SDS011;61320;52.008;4.530;2023-02-26T04:01:35;3.77;;;2.74;;
73132;SDS011;61320;52.008;4.530;2023-02-26T04:04:18;3.69;;;2.62;;
73132;SDS011;61320;52.008;4.530;2023-02-26T04:06:57;3.41;;;2.40;;
73132;SDS011;61320;52.008;4.530;2023-02-26T04:09:23;3.80;;;2.69;;
73132;SDS011;61320;52.008;4.530;2023-02-26T04:11:50;3.47;;;2.49;;
73132;SDS011;61320;52.008;4.530;2023-02-26T04:14:18;3.20;;;2.33;;
73132;SDS011;61320;52.008;4.530;2023-02-26T04:16:44;3.00;;;2.13;;
73132;SDS011;61320;52.008;4.530;2023-02-26T04:19:10;3.54;;;2.50;;
73132;SDS011;61320;52.008;4.530;2023-02-26T04:21:36;3.23;;;2.29;;
73132;SDS011;61320;52.008;4.530;2023-02-26T04:24:02;3.07;;;2.18;;
73132;SDS011;61320;52.008;4.530;2023-02-26T04:26:28;3.44;;;2.42;;
73132;SDS011;61320;52.008;4.530;2023-02-26T04:28:53;3.68;;;2.56;;
73132;SDS011;61320;52.008;4.530;2023-02-26T04:31:19;3.21;;;2.24;;
73132;SDS011;61320;52.008;4.530;2023-02-26T04:33:44;3.60;;;2.53;;
73132;SDS011;61320;52.008;4.530;2023-02-26T04:36:10;3.77;;;2.63;;
73132;SDS011;61320;52.008;4.530;2023-02-26T04:38:35;3.42;;;2.41;;
73132;SDS011;61320;52.008;4.530;2023-02-26T04:41:02;3.29;;;2.31;;
73132;SDS011;61320;52.008;4.530;2023-02-26T04:43:27;3.58;;;2.51;;
73132;SDS011;61320;52.008;4.530;2023-02-26T04:45:53;3.77;;;2.64;;
73132;SDS011;61320;52.008;4.530;2023-02-26T04:48:19;3.31;;;2.36;;
73132;SDS011;61320;52.008;4.530;2023-02-26T04:50:45;3.64;;;2.58;;
73132;SDS011;61320;52.008;4.530;2023-02-26T04:53:11;3.85;;;2.69;;
73132;SDS011;61320;52.008;4.530;2023-02-26T04:55:36;3.54;;;2.49;;
73132;SDS011;61320;52.008;4.530;2023-02-26T04:58:04;3.21;;;2.29;;
73132;SDS011;61320;52.008;4.530;2023-02-26T05:00:30;3.76;;;2.71;;
73132;SDS011;61320;52.008;4.530;2023-02-26T05:02:55;3.25;;;2.37;;
73132;SDS011;61320;52.008;4.530;2023-02-26T05:05:21;3.25;;;2.36;;
73132;SDS011;61320;52.008;4.530;2023-02-26T05:07:46;3.27;;;2.42;;
73132;SDS011;61320;52.008;4.530;2023-02-26T05:10:12;3.14;;;2.33;;
73132;SDS011;61320;52.008;4.530;2023-02-26T05:12:37;2.87;;;2.15;;
73132;SDS011;61320;52.008;4.530;2023-02-26T05:15:03;3.18;;;2.39;;
73132;SDS011;61320;52.008;4.530;2023-02-26T05:17:29;3.19;;;2.40;;
73132;SDS011;61320;52.008;4.530;2023-02-26T05:19:55;3.23;;;2.43;;
73132;SDS011;61320;52.008;4.530;2023-02-26T05:22:20;2.96;;;2.21;;
73132;SDS011;61320;52.008;4.530;2023-02-26T05:24:45;2.98;;;2.25;;
73132;SDS011;61320;52.008;4.530;2023-02-26T05:27:11;3.18;;;2.42;;
73132;SDS011;61320;52.008;4.530;2023-02-26T05:29:37;2.90;;;2.25;;
73132;SDS011;61320;52.008;4.530;2023-02-26T05:32:02;3.36;;;2.59;;
73132;SDS011;61320;52.008;4.530;2023-02-26T05:34:28;3.76;;;2.79;;
73132;SDS011;61320;52.008;4.530;2023-02-26T05:36:54;3.20;;;2.39;;
73132;SDS011;61320;52.008;4.530;2023-02-26T05:39:19;3.23;;;2.42;;
73132;SDS011;61320;52.008;4.530;2023-02-26T05:41:45;3.31;;;2.46;;
73132;SDS011;61320;52.008;4.530;2023-02-26T05:44:11;3.39;;;2.55;;
73132;SDS011;61320;52.008;4.530;2023-02-26T05:46:36;3.09;;;2.34;;
73132;SDS011;61320;52.008;4.530;2023-02-26T05:49:02;3.01;;;2.30;;
73132;SDS011;61320;52.008;4.530;2023-02-26T05:51:27;3.26;;;2.48;;
73132;SDS011;61320;52.008;4.530;2023-02-26T05:53:53;2.93;;;2.22;;
73132;SDS011;61320;52.008;4.530;2023-02-26T05:56:19;2.89;;;2.18;;
73132;SDS011;61320;52.008;4.530;2023-02-26T05:58:44;3.04;;;2.35;;
73132;SDS011;61320;52.008;4.530;2023-02-26T06:01:10;3.17;;;2.46;;
73132;SDS011;61320;52.008;4.530;2023-02-26T06:03:35;3.01;;;2.35;;
73132;SDS011;61320;52.008;4.530;2023-02-26T06:06:01;3.13;;;2.42;;
73132;SDS011;61320;52.008;4.530;2023-02-26T06:08:26;3.10;;;2.40;;
73132;SDS011;61320;52.008;4.530;2023-02-26T06:10:52;3.31;;;2.56;;
73132;SDS011;61320;52.008;4.530;2023-02-26T06:13:18;3.29;;;2.56;;
73132;SDS011;61320;52.008;4.530;2023-02-26T06:15:44;3.22;;;2.53;;
73132;SDS011;61320;52.008;4.530;2023-02-26T06:18:09;3.07;;;2.44;;
73132;SDS011;61320;52.008;4.530;2023-02-26T06:20:35;2.72;;;2.22;;
73132;SDS011;61320;52.008;4.530;2023-02-26T06:23:01;2.92;;;2.37;;
73132;SDS011;61320;52.008;4.530;2023-02-26T06:25:26;2.90;;;2.37;;
73132;SDS011;61320;52.008;4.530;2023-02-26T06:27:52;2.76;;;2.31;;
73132;SDS011;61320;52.008;4.530;2023-02-26T06:30:17;2.64;;;2.21;;
73132;SDS011;61320;52.008;4.530;2023-02-26T06:32:43;2.78;;;2.29;;
73132;SDS011;61320;52.008;4.530;2023-02-26T06:35:09;3.02;;;2.52;;
73132;SDS011;61320;52.008;4.530;2023-02-26T06:37:35;2.98;;;2.54;;
73132;SDS011;61320;52.008;4.530;2023-02-26T06:40:01;3.03;;;2.60;;
73132;SDS011;61320;52.008;4.530;2023-02-26T06:42:28;2.80;;;2.41;;
73132;SDS011;61320;52.008;4.530;2023-02-26T06:44:53;2.88;;;2.49;;
73132;SDS011;61320;52.008;4.530;2023-02-26T06:47:18;3.50;;;2.97;;
73132;SDS011;61320;52.008;4.530;2023-02-26T06:49:44;3.32;;;2.77;;
73132;SDS011;61320;52.008;4.530;2023-02-26T06:52:09;3.14;;;2.64;;
73132;SDS011;61320;52.008;4.530;2023-02-26T06:54:35;3.19;;;2.66;;
73132;SDS011;61320;52.008;4.530;2023-02-26T06:57:00;3.51;;;2.91;;
73132;SDS011;61320;52.008;4.530;2023-02-26T06:59:27;3.67;;;3.05;;
73132;SDS011;61320;52.008;4.530;2023-02-26T07:01:53;3.58;;;3.01;;
73132;SDS011;61320;52.008;4.530;2023-02-26T07:04:18;3.25;;;2.71;;
73132;SDS011;61320;52.008;4.530;2023-02-26T07:06:44;3.51;;;2.96;;
73132;SDS011;61320;52.008;4.530;2023-02-26T07:09:09;3.35;;;2.85;;
73132;SDS011;61320;52.008;4.530;2023-02-26T07:11:35;3.79;;;3.28;;
73132;SDS011;61320;52.008;4.530;2023-02-26T07:14:00;5.73;;;5.18;;
73132;SDS011;61320;52.008;4.530;2023-02-26T07:16:26;6.59;;;6.05;;
73132;SDS011;61320;52.008;4.530;2023-02-26T07:18:51;5.99;;;5.56;;
73132;SDS011;61320;52.008;4.530;2023-02-26T07:21:17;4.23;;;3.97;;
73132;SDS011;61320;52.008;4.530;2023-02-26T07:23:42;4.15;;;3.90;;
73132;SDS011;61320;52.008;4.530;2023-02-26T07:26:08;3.76;;;3.53;;
73132;SDS011;61320;52.008;4.530;2023-02-26T07:28:33;4.58;;;4.42;;
73132;SDS011;61320;52.008;4.530;2023-02-26T07:30:59;3.44;;;3.33;;
73132;SDS011;61320;52.008;4.530;2023-02-26T07:33:24;2.97;;;2.84;;
73132;SDS011;61320;52.008;4.530;2023-02-26T07:35:52;2.79;;;2.66;;
73132;SDS011;61320;52.008;4.530;2023-02-26T07:38:19;2.62;;;2.46;;
73132;SDS011;61320;52.008;4.530;2023-02-26T07:40:44;2.52;;;2.32;;
73132;SDS011;61320;52.008;4.530;2023-02-26T07:43:11;2.47;;;2.25;;
73132;SDS011;61320;52.008;4.530;2023-02-26T07:45:37;2.29;;;2.07;;
73132;SDS011;61320;52.008;4.530;2023-02-26T07:48:02;2.13;;;1.89;;
73132;SDS011;61320;52.008;4.530;2023-02-26T07:50:28;2.35;;;2.06;;
73132;SDS011;61320;52.008;4.530;2023-02-26T07:52:54;2.35;;;2.05;;
73132;SDS011;61320;52.008;4.530;2023-02-26T07:55:19;2.16;;;1.87;;
73132;SDS011;61320;52.008;4.530;2023-02-26T07:57:45;2.25;;;1.91;;
73132;SDS011;61320;52.008;4.530;2023-02-26T08:00:11;2.39;;;1.96;;
73132;SDS011;61320;52.008;4.530;2023-02-26T08:02:38;2.63;;;2.11;;
73132;SDS011;61320;52.008;4.530;2023-02-26T08:05:04;2.28;;;1.81;;
73132;SDS011;61320;52.008;4.530;2023-02-26T08:07:30;2.48;;;1.92;;
73132;SDS011;61320;52.008;4.530;2023-02-26T08:09:55;2.09;;;1.59;;
73132;SDS011;61320;52.008;4.530;2023-02-26T08:12:20;2.44;;;1.80;;
73132;SDS011;61320;52.008;4.530;2023-02-26T08:14:46;2.36;;;1.73;;
73132;SDS011;61320;52.008;4.530;2023-02-26T08:17:12;2.67;;;1.93;;
73132;SDS011;61320;52.008;4.530;2023-02-26T08:19:37;2.98;;;2.13;;
73132;SDS011;61320;52.008;4.530;2023-02-26T08:22:02;2.57;;;1.84;;
73132;SDS011;61320;52.008;4.530;2023-02-26T08:24:28;3.00;;;2.15;;
73132;SDS011;61320;52.008;4.530;2023-02-26T08:26:53;4.40;;;3.25;;
73132;SDS011;61320;52.008;4.530;2023-02-26T08:29:19;4.61;;;3.67;;
73132;SDS011;61320;52.008;4.530;2023-02-26T08:31:44;2.94;;;2.40;;
73132;SDS011;61320;52.008;4.530;2023-02-26T08:34:10;2.55;;;2.08;;
73132;SDS011;61320;52.008;4.530;2023-02-26T08:36:36;2.17;;;1.73;;
73132;SDS011;61320;52.008;4.530;2023-02-26T08:39:01;2.60;;;2.03;;
73132;SDS011;61320;52.008;4.530;2023-02-26T08:41:27;2.15;;;1.67;;
73132;SDS011;61320;52.008;4.530;2023-02-26T08:43:54;2.14;;;1.66;;
73132;SDS011;61320;52.008;4.530;2023-02-26T08:46:20;2.12;;;1.63;;
73132;SDS011;61320;52.008;4.530;2023-02-26T08:48:45;2.17;;;1.65;;
73132;SDS011;61320;52.008;4.530;2023-02-26T08:51:11;1.95;;;1.48;;
73132;SDS011;61320;52.008;4.530;2023-02-26T08:53:36;2.03;;;1.54;;
73132;SDS011;61320;52.008;4.530;2023-02-26T08:56:04;2.19;;;1.63;;
73132;SDS011;61320;52.008;4.530;2023-02-26T08:58:29;2.09;;;1.56;;
73132;SDS011;61320;52.008;4.530;2023-02-26T09:00:55;2.21;;;1.66;;
73132;SDS011;61320;52.008;4.530;2023-02-26T09:03:20;1.88;;;1.44;;
73132;SDS011;61320;52.008;4.530;2023-02-26T09:05:46;2.18;;;1.64;;
73132;SDS011;61320;52.008;4.530;2023-02-26T09:08:11;2.36;;;1.77;;
73132;SDS011;61320;52.008;4.530;2023-02-26T09:10:39;2.14;;;1.61;;
73132;SDS011;61320;52.008;4.530;2023-02-26T09:13:04;2.18;;;1.63;;
73132;SDS011;61320;52.008;4.530;2023-02-26T09:15:30;1.91;;;1.43;;
73132;SDS011;61320;52.008;4.530;2023-02-26T09:17:55;2.19;;;1.61;;
73132;SDS011;61320;52.008;4.530;2023-02-26T09:20:21;2.52;;;1.83;;
73132;SDS011;61320;52.008;4.530;2023-02-26T09:22:47;2.25;;;1.63;;
73132;SDS011;61320;52.008;4.530;2023-02-26T09:25:13;1.96;;;1.42;;
73132;SDS011;61320;52.008;4.530;2023-02-26T09:27:39;1.92;;;1.37;;
73132;SDS011;61320;52.008;4.530;2023-02-26T09:30:05;1.83;;;1.31;;
73132;SDS011;61320;52.008;4.530;2023-02-26T09:32:31;2.01;;;1.45;;
73132;SDS011;61320;52.008;4.530;2023-02-26T09:34:57;1.83;;;1.31;;
73132;SDS011;61320;52.008;4.530;2023-02-26T09:37:22;2.08;;;1.50;;
73132;SDS011;61320;52.008;4.530;2023-02-26T09:39:48;1.91;;;1.38;;
73132;SDS011;61320;52.008;4.530;2023-02-26T09:45:15;1.91;;;1.39;;
73132;SDS011;61320;52.008;4.530;2023-02-26T09:47:50;1.94;;;1.42;;
73132;SDS011;61320;52.008;4.530;2023-02-26T09:50:27;1.75;;;1.30;;
73132;SDS011;61320;52.008;4.530;2023-02-26T09:53:01;1.98;;;1.47;;
73132;SDS011;61320;52.008;4.530;2023-02-26T09:55:38;1.85;;;1.38;;
73132;SDS011;61320;52.008;4.530;2023-02-26T09:58:26;1.67;;;1.25;;
73132;SDS011;61320;52.008;4.530;2023-02-26T10:07:09;1.93;;;1.47;;
73132;SDS011;61320;52.008;4.530;2023-02-26T10:12:08;1.56;;;1.20;;
73132;SDS011;61320;52.008;4.530;2023-02-26T10:14:51;1.64;;;1.24;;
73132;SDS011;61320;52.008;4.530;2023-02-26T10:17:37;1.61;;;1.21;;
73132;SDS011;61320;52.008;4.530;2023-02-26T10:20:21;1.71;;;1.30;;
73132;SDS011;61320;52.008;4.530;2023-02-26T10:25:22;1.52;;;1.21;;
73132;SDS011;61320;52.008;4.530;2023-02-26T10:28:06;1.71;;;1.36;;
73132;SDS011;61320;52.008;4.530;2023-02-26T10:31:04;1.43;;;1.14;;
73132;SDS011;61320;52.008;4.530;2023-02-26T10:33:55;1.29;;;1.02;;
73132;SDS011;61320;52.008;4.530;2023-02-26T10:36:26;1.34;;;1.03;;
73132;SDS011;61320;52.008;4.530;2023-02-26T10:39:02;1.49;;;1.13;;
73132;SDS011;61320;52.008;4.530;2023-02-26T10:41:40;1.48;;;1.10;;
73132;SDS011;61320;52.008;4.530;2023-02-26T10:44:15;1.59;;;1.17;;
73132;SDS011;61320;52.008;4.530;2023-02-26T10:47:11;1.21;;;0.92;;
73132;SDS011;61320;52.008;4.530;2023-02-26T10:50:02;1.18;;;0.92;;
73132;SDS011;61320;52.008;4.530;2023-02-26T10:52:32;1.29;;;1.01;;
73132;SDS011;61320;52.008;4.530;2023-02-26T10:57:36;1.38;;;1.08;;
73132;SDS011;61320;52.008;4.530;2023-02-26T11:00:16;1.64;;;1.30;;
73132;SDS011;61320;52.008;4.530;2023-02-26T11:02:45;1.28;;;1.03;;
73132;SDS011;61320;52.008;4.530;2023-02-26T11:05:21;1.40;;;1.12;;
73132;SDS011;61320;52.008;4.530;2023-02-26T11:07:52;1.49;;;1.16;;
73132;SDS011;61320;52.008;4.530;2023-02-26T11:10:22;1.46;;;1.14;;
73132;SDS011;61320;52.008;4.530;2023-02-26T11:12:50;1.59;;;1.22;;
73132;SDS011;61320;52.008;4.530;2023-02-26T11:15:17;1.60;;;1.19;;
73132;SDS011;61320;52.008;4.530;2023-02-26T11:17:47;1.32;;;0.98;;
73132;SDS011;61320;52.008;4.530;2023-02-26T11:23:02;1.86;;;1.44;;
73132;SDS011;61320;52.008;4.530;2023-02-26T11:25:32;1.77;;;1.39;;
73132;SDS011;61320;52.008;4.530;2023-02-26T11:28:02;1.73;;;1.38;;
73132;SDS011;61320;52.008;4.530;2023-02-26T11:30:32;1.75;;;1.41;;
73132;SDS011;61320;52.008;4.530;2023-02-26T11:33:22;1.50;;;1.22;;
73132;SDS011;61320;52.008;4.530;2023-02-26T11:35:51;1.37;;;1.09;;
73132;SDS011;61320;52.008;4.530;2023-02-26T11:38:24;1.04;;;0.81;;
73132;SDS011;61320;52.008;4.530;2023-02-26T11:40:56;1.41;;;1.09;;
73132;SDS011;61320;52.008;4.530;2023-02-26T11:43:23;1.57;;;1.22;;
73132;SDS011;61320;52.008;4.530;2023-02-26T11:45:59;1.62;;;1.26;;
73132;SDS011;61320;52.008;4.530;2023-02-26T11:48:37;1.55;;;1.20;;
73132;SDS011;61320;52.008;4.530;2023-02-26T11:51:07;1.49;;;1.15;;
73132;SDS011;61320;52.008;4.530;2023-02-26T11:53:41;1.59;;;1.22;;
73132;SDS011;61320;52.008;4.530;2023-02-26T11:56:14;1.68;;;1.30;;
73132;SDS011;61320;52.008;4.530;2023-02-26T11:58:49;1.56;;;1.19;;
73132;SDS011;61320;52.008;4.530;2023-02-26T12:01:17;1.74;;;1.31;;
73132;SDS011;61320;52.008;4.530;2023-02-26T12:03:44;1.39;;;1.05;;
73132;SDS011;61320;52.008;4.530;2023-02-26T12:06:20;1.66;;;1.25;;
73132;SDS011;61320;52.008;4.530;2023-02-26T12:08:49;2.02;;;1.55;;
73132;SDS011;61320;52.008;4.530;2023-02-26T12:13:58;1.35;;;1.06;;
73132;SDS011;61320;52.008;4.530;2023-02-26T12:47:10;1.65;;;1.28;;
73132;SDS011;61320;52.008;4.530;2023-02-26T12:55:32;3.62;;;2.93;;
73132;SDS011;61320;52.008;4.530;2023-02-26T13:18:03;2.18;;;1.90;;
73132;SDS011;61320;52.008;4.530;2023-02-26T13:20:40;1.52;;;1.37;;
73132;SDS011;61320;52.008;4.530;2023-02-26T13:23:21;1.41;;;1.28;;
73132;SDS011;61320;52.008;4.530;2023-02-26T13:25:58;1.72;;;1.52;;
73132;SDS011;61320;52.008;4.530;2023-02-26T13:31:16;1.82;;;1.65;;
73132;SDS011;61320;52.008;4.530;2023-02-26T13:33:49;1.92;;;1.78;;
73132;SDS011;61320;52.008;4.530;2023-02-26T13:36:18;1.52;;;1.40;;
73132;SDS011;61320;52.008;4.530;2023-02-26T13:49:22;1.91;;;1.66;;
73132;SDS011;61320;52.008;4.530;2023-02-26T13:52:00;1.65;;;1.44;;
73132;SDS011;61320;52.008;4.530;2023-02-26T13:56:53;1.81;;;1.53;;
73132;SDS011;61320;52.008;4.530;2023-02-26T14:02:42;2.08;;;1.75;;
73132;SDS011;61320;52.008;4.530;2023-02-26T14:04:59;1.77;;;1.49;;
73132;SDS011;61320;52.008;4.530;2023-02-26T14:07:47;1.79;;;1.51;;
73132;SDS011;61320;52.008;4.530;2023-02-26T14:11:23;1.81;;;1.50;;
73132;SDS011;61320;52.008;4.530;2023-02-26T14:13:39;1.74;;;1.42;;
73132;SDS011;61320;52.008;4.530;2023-02-26T14:16:12;1.89;;;1.52;;
73132;SDS011;61320;52.008;4.530;2023-02-26T14:23:55;1.73;;;1.32;;
73132;SDS011;61320;52.008;4.530;2023-02-26T14:26:23;1.82;;;1.39;;
73132;SDS011;61320;52.008;4.530;2023-02-26T14:28:54;1.75;;;1.37;;
73132;SDS011;61320;52.008;4.530;2023-02-26T14:31:50;1.62;;;1.29;;
73132;SDS011;61320;52.008;4.530;2023-02-26T14:34:24;1.66;;;1.34;;
73132;SDS011;61320;52.008;4.530;2023-02-26T14:36:57;1.66;;;1.33;;
73132;SDS011;61320;52.008;4.530;2023-02-26T14:39:34;1.58;;;1.26;;
73132;SDS011;61320;52.008;4.530;2023-02-26T14:42:11;1.87;;;1.45;;
73132;SDS011;61320;52.008;4.530;2023-02-26T14:44:49;1.62;;;1.25;;
73132;SDS011;61320;52.008;4.530;2023-02-26T14:47:27;1.76;;;1.38;;
73132;SDS011;61320;52.008;4.530;2023-02-26T14:49:53;1.51;;;1.20;;
73132;SDS011;61320;52.008;4.530;2023-02-26T14:55:26;1.43;;;1.11;;
73132;SDS011;61320;52.008;4.530;2023-02-26T14:58:33;1.46;;;1.14;;
73132;SDS011;61320;52.008;4.530;2023-02-26T15:11:37;1.30;;;0.97;;
73132;SDS011;61320;52.008;4.530;2023-02-26T15:25:04;1.60;;;1.19;;
73132;SDS011;61320;52.008;4.530;2023-02-26T15:27:51;1.47;;;1.09;;
73132;SDS011;61320;52.008;4.530;2023-02-26T15:30:18;1.46;;;1.08;;
73132;SDS011;61320;52.008;4.530;2023-02-26T15:32:44;1.61;;;1.19;;
73132;SDS011;61320;52.008;4.530;2023-02-26T15:35:20;1.53;;;1.13;;
73132;SDS011;61320;52.008;4.530;2023-02-26T15:37:47;1.69;;;1.28;;
73132;SDS011;61320;52.008;4.530;2023-02-26T15:40:15;1.55;;;1.17;;
73132;SDS011;61320;52.008;4.530;2023-02-26T15:42:42;2.32;;;1.80;;
73132;SDS011;61320;52.008;4.530;2023-02-26T15:48:07;2.27;;;1.93;;
73132;SDS011;61320;52.008;4.530;2023-02-26T15:50:40;1.66;;;1.44;;
73132;SDS011;61320;52.008;4.530;2023-02-26T15:53:12;1.68;;;1.45;;
73132;SDS011;61320;52.008;4.530;2023-02-26T15:55:46;1.46;;;1.24;;
73132;SDS011;61320;52.008;4.530;2023-02-26T15:58:19;1.48;;;1.24;;
73132;SDS011;61320;52.008;4.530;2023-02-26T16:00:54;1.81;;;1.48;;
73132;SDS011;61320;52.008;4.530;2023-02-26T16:03:24;2.08;;;1.70;;
73132;SDS011;61320;52.008;4.530;2023-02-26T16:05:52;2.15;;;1.81;;
73132;SDS011;61320;52.008;4.530;2023-02-26T16:08:19;1.53;;;1.31;;
73132;SDS011;61320;52.008;4.530;2023-02-26T16:10:44;1.43;;;1.22;;
73132;SDS011;61320;52.008;4.530;2023-02-26T16:13:12;1.18;;;1.00;;
73132;SDS011;61320;52.008;4.530;2023-02-26T16:15:42;1.22;;;1.01;;
73132;SDS011;61320;52.008;4.530;2023-02-26T16:18:12;1.51;;;1.23;;
73132;SDS011;61320;52.008;4.530;2023-02-26T16:20:46;1.65;;;1.32;;
73132;SDS011;61320;52.008;4.530;2023-02-26T16:23:17;1.70;;;1.34;;
73132;SDS011;61320;52.008;4.530;2023-02-26T16:25:54;1.61;;;1.26;;
73132;SDS011;61320;52.008;4.530;2023-02-26T16:28:31;2.03;;;1.56;;
73132;SDS011;61320;52.008;4.530;2023-02-26T16:31:02;2.18;;;1.64;;
73132;SDS011;61320;52.008;4.530;2023-02-26T16:33:33;3.04;;;2.33;;
73132;SDS011;61320;52.008;4.530;2023-02-26T16:36:13;2.14;;;1.70;;
73132;SDS011;61320;52.008;4.530;2023-02-26T16:38:43;2.44;;;1.96;;
73132;SDS011;61320;52.008;4.530;2023-02-26T16:41:11;2.28;;;1.85;;
73132;SDS011;61320;52.008;4.530;2023-02-26T16:51:28;3.05;;;2.74;;
73132;SDS011;61320;52.008;4.530;2023-02-26T16:54:00;2.79;;;2.57;;
73132;SDS011;61320;52.008;4.530;2023-02-26T16:56:32;2.04;;;1.88;;
73132;SDS011;61320;52.008;4.530;2023-02-26T17:04:21;2.23;;;1.90;;
73132;SDS011;61320;52.008;4.530;2023-02-26T17:06:51;2.55;;;2.19;;
73132;SDS011;61320;52.008;4.530;2023-02-26T17:09:24;2.48;;;2.13;;
73132;SDS011;61320;52.008;4.530;2023-02-26T17:12:13;2.92;;;2.53;;
73132;SDS011;61320;52.008;4.530;2023-02-26T17:14:57;3.82;;;3.53;;
73132;SDS011;61320;52.008;4.530;2023-02-26T17:17:25;4.30;;;4.07;;
73132;SDS011;61320;52.008;4.530;2023-02-26T17:19:50;3.39;;;3.18;;
73132;SDS011;61320;52.008;4.530;2023-02-26T17:22:18;3.69;;;3.50;;
73132;SDS011;61320;52.008;4.530;2023-02-26T17:24:50;3.74;;;3.56;;
73132;SDS011;61320;52.008;4.530;2023-02-26T17:27:28;3.34;;;3.18;;
73132;SDS011;61320;52.008;4.530;2023-02-26T17:29:58;2.77;;;2.63;;
73132;SDS011;61320;52.008;4.530;2023-02-26T17:32:26;2.83;;;2.66;;
73132;SDS011;61320;52.008;4.530;2023-02-26T17:34:54;2.83;;;2.65;;
73132;SDS011;61320;52.008;4.530;2023-02-26T17:37:19;2.41;;;2.26;;
73132;SDS011;61320;52.008;4.530;2023-02-26T17:39:46;2.13;;;2.00;;
73132;SDS011;61320;52.008;4.530;2023-02-26T17:42:12;2.74;;;2.54;;
73132;SDS011;61320;52.008;4.530;2023-02-26T17:44:45;3.23;;;3.05;;
73132;SDS011;61320;52.008;4.530;2023-02-26T17:47:18;4.39;;;4.19;;
73132;SDS011;61320;52.008;4.530;2023-02-26T17:49:46;4.62;;;4.52;;
73132;SDS011;61320;52.008;4.530;2023-02-26T17:52:12;4.42;;;4.34;;
73132;SDS011;61320;52.008;4.530;2023-02-26T17:54:38;3.76;;;3.71;;
73132;SDS011;61320;52.008;4.530;2023-02-26T17:57:05;3.43;;;3.40;;
73132;SDS011;61320;52.008;4.530;2023-02-26T17:59:32;3.49;;;3.45;;
73132;SDS011;61320;52.008;4.530;2023-02-26T18:01:57;2.72;;;2.68;;
73132;SDS011;61320;52.008;4.530;2023-02-26T18:04:23;2.04;;;1.96;;
73132;SDS011;61320;52.008;4.530;2023-02-26T18:06:49;2.11;;;1.99;;
73132;SDS011;61320;52.008;4.530;2023-02-26T18:09:15;2.11;;;1.90;;
73132;SDS011;61320;52.008;4.530;2023-02-26T18:11:41;2.68;;;2.36;;
73132;SDS011;61320;52.008;4.530;2023-02-26T18:14:07;3.20;;;2.90;;
73132;SDS011;61320;52.008;4.530;2023-02-26T18:16:35;3.68;;;3.33;;